createdAt,value
2022-12-20T00:03:41.074Z,-1.65
2022-12-20T00:07:53.366Z,-1.75
2022-12-20T00:12:06.819Z,-1.78
2022-12-20T00:16:30.253Z,-1.70
2022-12-20T00:20:42.593Z,-1.73
2022-12-20T00:24:57.067Z,-1.82
2022-12-20T00:29:09.648Z,-1.66
2022-12-20T00:33:22.220Z,-1.73
2022-12-20T00:37:34.853Z,-1.68
2022-12-20T00:41:47.170Z,-1.83
2022-12-20T00:46:03.037Z,-1.73
2022-12-20T00:50:15.469Z,-1.76
2022-12-20T00:54:27.770Z,-1.72
2022-12-20T00:58:41.874Z,-1.61
2022-12-20T01:02:54.289Z,-1.67
2022-12-20T01:07:16.709Z,-1.57
2022-12-20T01:11:31.912Z,-1.55
2022-12-20T01:15:44.219Z,-1.71
2022-12-20T01:19:56.567Z,-1.73
2022-12-20T01:24:09.753Z,-1.58
2022-12-20T01:28:22.101Z,-1.53
2022-12-20T01:32:34.413Z,-1.60
2022-12-20T01:36:46.752Z,-1.64
2022-12-20T01:40:59.211Z,-1.46
2022-12-20T01:45:26.321Z,-1.59
2022-12-20T01:49:45.570Z,-1.69
2022-12-20T01:54:02.630Z,-1.59
2022-12-20T01:58:17.932Z,-1.52
2022-12-20T02:02:30.445Z,-1.46
2022-12-20T02:06:42.940Z,-1.38
2022-12-20T02:11:15.470Z,-1.31
2022-12-20T02:15:36.858Z,-1.42
2022-12-20T02:20:08.243Z,-1.54
2022-12-20T02:24:54.361Z,-1.43
2022-12-20T02:29:26.032Z,-1.47
2022-12-20T02:33:40.152Z,-1.47
2022-12-20T02:37:55.568Z,-1.49
2022-12-20T02:42:14.680Z,-1.39
2022-12-20T02:46:28.316Z,-1.47
2022-12-20T02:50:47.492Z,-1.45
2022-12-20T02:55:01.084Z,-1.44
2022-12-20T02:59:18.887Z,-1.48
2022-12-20T03:03:40.409Z,-1.44
2022-12-20T03:07:53.292Z,-1.40
2022-12-20T03:12:06.414Z,-1.32
2022-12-20T03:16:19.420Z,-1.37
2022-12-20T03:20:32.037Z,-1.35
2022-12-20T03:24:44.346Z,-1.35
2022-12-20T03:28:56.738Z,-1.35
2022-12-20T03:33:13.479Z,-1.32
2022-12-20T03:37:27.682Z,-1.31
2022-12-20T03:41:40.101Z,-1.27
2022-12-20T03:45:53.216Z,-1.29
2022-12-20T03:50:07.078Z,-1.15
2022-12-20T03:54:19.599Z,-1.10
2022-12-20T03:58:33.003Z,-1.18
2022-12-20T04:02:45.567Z,-1.12
2022-12-20T04:06:58.081Z,-1.06
2022-12-20T04:11:19.943Z,-1.07
2022-12-20T04:15:32.307Z,-1.11
2022-12-20T04:19:44.630Z,-0.98
2022-12-20T04:23:58.302Z,-0.96
2022-12-20T04:28:10.606Z,-0.81
2022-12-20T04:32:22.900Z,-0.86
2022-12-20T04:36:35.399Z,-0.94
2022-12-20T04:40:50.814Z,-0.97
2022-12-20T04:45:03.512Z,-1.04
2022-12-20T04:49:15.989Z,-1.01
2022-12-20T04:53:46.941Z,-1.03
2022-12-20T04:58:05.275Z,-0.96
2022-12-20T05:02:19.868Z,-1.13
2022-12-20T05:06:32.283Z,-1.22
2022-12-20T05:10:44.732Z,-1.20
2022-12-20T05:14:57.371Z,-1.17
2022-12-20T05:19:09.665Z,-1.03
2022-12-20T05:23:40.385Z,-1.02
2022-12-20T05:27:52.677Z,-1.02
2022-12-20T05:32:05.241Z,-0.93
2022-12-20T05:36:17.654Z,-1.07
2022-12-20T05:40:31.924Z,-0.99
2022-12-20T05:44:54.214Z,-1.02
2022-12-20T05:49:06.537Z,-0.98
2022-12-20T05:53:28.959Z,-1.00
2022-12-20T05:57:41.322Z,-0.95
2022-12-20T06:01:53.764Z,-1.00
2022-12-20T06:06:13.558Z,-1.07
2022-12-20T06:10:27.448Z,-1.13
2022-12-20T06:14:39.835Z,-1.21
2022-12-20T06:18:52.620Z,-1.11
2022-12-20T06:23:05.057Z,-1.03
2022-12-20T06:27:27.460Z,-1.01
2022-12-20T06:31:39.797Z,-1.02
2022-12-20T06:35:54.095Z,-0.86
2022-12-20T06:40:07.400Z,-0.69
2022-12-20T06:44:19.714Z,-0.56
2022-12-20T06:48:32.047Z,-0.56
2022-12-20T06:52:44.358Z,-0.49
2022-12-20T06:56:56.680Z,-0.41
2022-12-20T07:01:15.632Z,-0.47
2022-12-20T07:05:28.499Z,-0.45
2022-12-20T07:09:42.273Z,-0.33
2022-12-20T07:13:58.345Z,-0.38
2022-12-20T07:18:10.783Z,-0.30
2022-12-20T07:22:23.126Z,-0.30
2022-12-20T07:26:35.644Z,-0.28
2022-12-20T07:30:48.274Z,-0.19
2022-12-20T07:35:00.807Z,-0.21
2022-12-20T07:39:14.022Z,-0.13
2022-12-20T07:43:26.351Z,-0.02
2022-12-20T07:47:38.689Z,0.00
2022-12-20T07:51:54.176Z,0.06
2022-12-20T07:56:09.975Z,0.29
2022-12-20T08:00:22.397Z,0.37
2022-12-20T08:04:35.183Z,0.48
2022-12-20T08:08:52.461Z,0.61
2022-12-20T08:13:07.006Z,0.79
2022-12-20T08:17:19.669Z,0.89
2022-12-20T08:21:32.559Z,1.03
2022-12-20T08:25:45.427Z,1.17
2022-12-20T08:30:08.281Z,1.39
2022-12-20T08:34:21.138Z,1.66
2022-12-20T08:38:34.337Z,1.62
2022-12-20T08:42:46.736Z,1.55
2022-12-20T08:46:59.055Z,1.80
2022-12-20T08:51:13.255Z,2.16
2022-12-20T08:55:29.469Z,2.17
2022-12-20T08:59:42.704Z,2.31
2022-12-20T09:03:55.113Z,2.70
2022-12-20T09:08:07.503Z,2.92
2022-12-20T09:12:21.917Z,3.07
2022-12-20T09:16:34.324Z,3.31
2022-12-20T09:20:46.627Z,3.76
2022-12-20T09:24:59.318Z,3.87
2022-12-20T09:29:11.606Z,3.95
2022-12-20T09:33:23.962Z,4.32
2022-12-20T09:37:36.440Z,4.82
2022-12-20T09:41:59.994Z,4.67
2022-12-20T09:46:16.145Z,4.92
2022-12-20T09:51:08.404Z,4.83
2022-12-20T09:55:31.796Z,4.61
2022-12-20T09:59:49.461Z,4.42
2022-12-20T10:04:06.808Z,4.63
2022-12-20T10:08:36.370Z,4.77
2022-12-20T10:13:13.119Z,4.90
2022-12-20T10:17:57.219Z,5.33
2022-12-20T10:22:18.493Z,5.42
2022-12-20T10:26:33.281Z,5.56
2022-12-20T10:30:51.536Z,5.58
2022-12-20T10:35:12.800Z,5.85
2022-12-20T10:39:42.239Z,5.99
2022-12-20T10:44:16.407Z,6.20
2022-12-20T10:48:34.751Z,6.00
2022-12-20T10:53:10.919Z,5.97
2022-12-20T10:57:27.708Z,6.01
2022-12-20T11:01:45.729Z,6.11
2022-12-20T11:06:01.048Z,6.16
2022-12-20T11:10:24.120Z,5.81
2022-12-20T11:14:39.828Z,5.89
2022-12-20T11:18:57.125Z,5.89
2022-12-20T11:23:26.044Z,6.10
2022-12-20T11:27:51.229Z,6.40
2022-12-20T11:32:25.689Z,6.36
2022-12-20T11:37:02.703Z,6.36
2022-12-20T11:41:20.981Z,6.68
2022-12-20T11:45:39.524Z,6.86
2022-12-20T11:50:19.775Z,6.95
2022-12-20T11:54:36.322Z,7.18
2022-12-20T11:58:55.233Z,7.43
2022-12-20T12:03:22.598Z,7.24
2022-12-20T12:07:37.565Z,6.97
2022-12-20T12:12:07.880Z,6.08
2022-12-20T12:16:29.028Z,6.09
2022-12-20T12:20:53.724Z,6.17
2022-12-20T12:25:14.889Z,5.89
2022-12-20T12:29:30.439Z,5.88
2022-12-20T12:34:03.840Z,5.56
2022-12-20T12:38:38.140Z,5.50
2022-12-20T12:43:12.118Z,5.35
2022-12-20T12:47:35.796Z,5.28
2022-12-20T12:51:56.454Z,4.72
2022-12-20T12:56:43.108Z,4.64
2022-12-20T13:01:00.562Z,4.25
2022-12-20T13:05:19.393Z,4.20
2022-12-20T13:09:34.784Z,3.92
2022-12-20T13:13:48.509Z,3.31
2022-12-20T13:18:12.778Z,3.04
2022-12-20T13:22:27.030Z,3.02
2022-12-20T13:26:53.846Z,3.21
2022-12-20T13:31:06.111Z,3.16
2022-12-20T13:35:26.749Z,3.10
2022-12-20T13:39:39.077Z,3.17
2022-12-20T13:43:52.926Z,3.24
2022-12-20T13:48:11.638Z,3.25
2022-12-20T13:52:38.970Z,3.24
2022-12-20T13:56:53.215Z,3.43
2022-12-20T14:01:13.765Z,3.44
2022-12-20T14:05:32.181Z,2.97
2022-12-20T14:09:55.582Z,2.82
2022-12-20T14:14:14.845Z,2.82
2022-12-20T14:18:27.405Z,3.27
2022-12-20T14:22:57.888Z,3.53
2022-12-20T14:27:15.144Z,3.69
2022-12-20T14:31:34.676Z,3.46
2022-12-20T14:35:49.585Z,3.02
2022-12-20T14:40:10.794Z,2.83
2022-12-20T14:44:33.957Z,2.74
2022-12-20T14:48:46.919Z,2.35
2022-12-20T14:53:00.283Z,2.39
2022-12-20T14:57:25.394Z,2.38
2022-12-20T15:01:43.591Z,2.13
2022-12-20T15:05:58.903Z,2.10
2022-12-20T15:10:11.218Z,2.04
2022-12-20T15:14:41.518Z,1.94
2022-12-20T15:18:56.608Z,1.92
2022-12-20T15:23:29.810Z,1.93
2022-12-20T15:27:42.078Z,1.76
2022-12-20T15:32:05.030Z,1.82
2022-12-20T15:36:21.210Z,1.71
2022-12-20T15:40:38.210Z,1.57
2022-12-20T15:44:50.802Z,1.80
2022-12-20T15:49:03.258Z,1.64
2022-12-20T15:53:17.486Z,1.63
2022-12-20T15:57:39.768Z,1.63
2022-12-20T16:02:02.617Z,1.54
2022-12-20T16:06:15.506Z,1.51
2022-12-20T16:10:27.816Z,1.50
2022-12-20T16:14:40.134Z,1.55
2022-12-20T16:18:54.440Z,1.55
2022-12-20T16:23:08.401Z,1.56
2022-12-20T16:27:21.230Z,1.55
2022-12-20T16:31:39.194Z,1.55
2022-12-20T16:36:00.349Z,1.52
2022-12-20T16:40:16.278Z,1.47
2022-12-20T16:44:28.572Z,1.32
2022-12-20T16:48:42.420Z,1.36
2022-12-20T16:52:55.242Z,1.34
2022-12-20T16:57:07.546Z,1.24
2022-12-20T17:01:36.425Z,1.31
2022-12-20T17:05:48.947Z,1.41
2022-12-20T17:10:01.229Z,1.28
2022-12-20T17:14:14.350Z,1.27
2022-12-20T17:18:26.780Z,1.30
2022-12-20T17:22:39.115Z,1.25
2022-12-20T17:26:51.696Z,1.27
2022-12-20T17:31:08.085Z,1.24
2022-12-20T17:35:24.698Z,1.26
2022-12-20T17:39:36.964Z,1.20
2022-12-20T17:43:49.320Z,1.26
2022-12-20T17:48:01.624Z,1.19
2022-12-20T17:52:15.442Z,1.30
2022-12-20T17:56:34.091Z,1.28
2022-12-20T18:00:46.472Z,1.23
2022-12-20T18:04:58.847Z,1.33
2022-12-20T18:09:19.841Z,1.40
2022-12-20T18:13:33.264Z,1.40
2022-12-20T18:17:45.937Z,1.34
2022-12-20T18:22:05.809Z,1.36
2022-12-20T18:26:24.099Z,1.27
2022-12-20T18:30:37.174Z,1.32
2022-12-20T18:34:49.667Z,1.26
2022-12-20T18:39:03.652Z,1.30
2022-12-20T18:43:17.082Z,1.32
2022-12-20T18:47:33.021Z,1.32
2022-12-20T18:51:45.295Z,1.25
2022-12-20T18:55:57.731Z,1.26
2022-12-20T19:00:10.583Z,1.29
2022-12-20T19:04:25.201Z,1.30
2022-12-20T19:08:38.639Z,1.34
2022-12-20T19:12:51.475Z,1.30
2022-12-20T19:17:03.940Z,1.22
2022-12-20T19:21:19.692Z,1.30
2022-12-20T19:25:36.673Z,1.27
2022-12-20T19:29:48.971Z,1.29
2022-12-20T19:34:08.269Z,1.28
2022-12-20T19:38:20.521Z,1.25
2022-12-20T19:42:32.820Z,1.18
2022-12-20T19:46:45.219Z,1.20
2022-12-20T19:51:14.511Z,1.25
2022-12-20T19:55:28.850Z,1.31
2022-12-20T19:59:55.569Z,1.21
2022-12-20T20:04:10.750Z,1.22
2022-12-20T20:08:25.925Z,1.30
2022-12-20T20:12:39.130Z,1.21
2022-12-20T20:16:51.552Z,1.22
2022-12-20T20:21:13.229Z,1.36
2022-12-20T20:25:25.503Z,1.29
2022-12-20T20:29:37.827Z,1.35
2022-12-20T20:33:50.889Z,1.39
2022-12-20T20:38:03.207Z,1.34
2022-12-20T20:42:23.032Z,1.43
2022-12-20T20:46:35.635Z,1.38
2022-12-20T20:50:48.037Z,1.43
2022-12-20T20:55:00.355Z,1.39
2022-12-20T20:59:17.595Z,1.39
2022-12-20T21:03:41.276Z,1.48
2022-12-20T21:07:54.388Z,1.42
2022-12-20T21:12:06.904Z,1.31
2022-12-20T21:16:23.162Z,1.24
2022-12-20T21:20:36.746Z,1.36
2022-12-20T21:24:49.013Z,1.27
2022-12-20T21:29:01.924Z,1.40
2022-12-20T21:33:14.224Z,1.40
2022-12-20T21:37:27.309Z,1.41
2022-12-20T21:41:40.534Z,1.37
2022-12-20T21:45:52.833Z,1.27
2022-12-20T21:50:06.284Z,1.35
2022-12-20T21:54:18.576Z,1.41
2022-12-20T21:58:31.831Z,1.42
2022-12-20T22:02:44.404Z,1.33
2022-12-20T22:06:56.782Z,1.42
2022-12-20T22:11:11.548Z,1.36
2022-12-20T22:15:23.987Z,1.26
2022-12-20T22:19:37.855Z,1.30
2022-12-20T22:23:50.835Z,1.35
2022-12-20T22:28:03.413Z,1.34
2022-12-20T22:32:15.832Z,1.36
2022-12-20T22:36:29.265Z,1.45
2022-12-20T22:40:41.573Z,1.45
2022-12-20T22:44:54.863Z,1.45
2022-12-20T22:49:07.168Z,1.36
2022-12-20T22:53:19.494Z,1.37
2022-12-20T22:57:35.466Z,1.44
2022-12-20T23:01:47.942Z,1.50
2022-12-20T23:06:02.800Z,1.49
2022-12-20T23:10:36.771Z,1.54
2022-12-20T23:15:07.622Z,1.39
2022-12-20T23:19:20.031Z,1.42
2022-12-20T23:23:33.008Z,1.61
2022-12-20T23:27:48.355Z,1.46
2022-12-20T23:32:00.735Z,1.45
2022-12-20T23:36:13.317Z,1.44
2022-12-20T23:40:25.588Z,1.41
2022-12-20T23:44:39.431Z,1.52
2022-12-20T23:48:57.622Z,1.48
2022-12-20T23:53:10.507Z,1.42
2022-12-20T23:57:22.828Z,1.35
